sensor_id;sensor_type;location;lat;lon;timestamp;P1;durP1;ratioP1;P2;durP2;ratioP2
1935;SDS011;969;49.892;10.896;2023-06-10T00:02:21;4.93;;;4.53;;
1935;SDS011;969;49.892;10.896;2023-06-10T00:04:47;5.67;;;5.17;;
1935;SDS011;969;49.892;10.896;2023-06-10T00:07:12;4.83;;;4.43;;
1935;SDS011;969;49.892;10.896;2023-06-10T00:09:38;5.10;;;4.70;;
1935;SDS011;969;49.892;10.896;2023-06-10T00:12:04;6.10;;;5.20;;
1935;SDS011;969;49.892;10.896;2023-06-10T00:14:31;4.70;;;4.30;;
1935;SDS011;969;49.892;10.896;2023-06-10T00:16:57;4.97;;;4.57;;
1935;SDS011;969;49.892;10.896;2023-06-10T00:19:24;4.80;;;4.40;;
1935;SDS011;969;49.892;10.896;2023-06-10T00:21:50;5.00;;;4.60;;
1935;SDS011;969;49.892;10.896;2023-06-10T00:24:17;4.90;;;4.30;;
1935;SDS011;969;49.892;10.896;2023-06-10T00:26:43;5.00;;;4.60;;
1935;SDS011;969;49.892;10.896;2023-06-10T00:29:09;5.57;;;5.10;;
1935;SDS011;969;49.892;10.896;2023-06-10T00:31:36;5.03;;;4.60;;
1935;SDS011;969;49.892;10.896;2023-06-10T00:34:02;4.83;;;4.43;;
1935;SDS011;969;49.892;10.896;2023-06-10T00:36:28;5.00;;;4.60;;
1935;SDS011;969;49.892;10.896;2023-06-10T00:38:54;4.77;;;4.37;;
1935;SDS011;969;49.892;10.896;2023-06-10T00:41:19;5.30;;;4.90;;
1935;SDS011;969;49.892;10.896;2023-06-10T00:43:45;4.60;;;4.20;;
1935;SDS011;969;49.892;10.896;2023-06-10T00:46:11;4.93;;;4.43;;
1935;SDS011;969;49.892;10.896;2023-06-10T00:48:38;4.37;;;4.07;;
1935;SDS011;969;49.892;10.896;2023-06-10T00:51:05;4.50;;;4.20;;
1935;SDS011;969;49.892;10.896;2023-06-10T00:53:34;4.90;;;4.60;;
1935;SDS011;969;49.892;10.896;2023-06-10T00:56:01;4.53;;;4.13;;
1935;SDS011;969;49.892;10.896;2023-06-10T00:58:28;4.70;;;4.30;;
1935;SDS011;969;49.892;10.896;2023-06-10T01:00:54;4.30;;;4.00;;
1935;SDS011;969;49.892;10.896;2023-06-10T01:03:19;4.77;;;4.43;;
1935;SDS011;969;49.892;10.896;2023-06-10T01:05:46;5.20;;;4.70;;
1935;SDS011;969;49.892;10.896;2023-06-10T01:08:59;4.73;;;4.33;;
1935;SDS011;969;49.892;10.896;2023-06-10T01:11:34;4.90;;;4.50;;
1935;SDS011;969;49.892;10.896;2023-06-10T01:14:11;4.40;;;4.00;;
1935;SDS011;969;49.892;10.896;2023-06-10T01:16:39;4.83;;;4.43;;
1935;SDS011;969;49.892;10.896;2023-06-10T01:19:06;4.33;;;3.97;;
1935;SDS011;969;49.892;10.896;2023-06-10T01:21:32;4.73;;;4.43;;
1935;SDS011;969;49.892;10.896;2023-06-10T01:23:58;4.10;;;3.80;;
1935;SDS011;969;49.892;10.896;2023-06-10T01:26:25;4.57;;;4.17;;
1935;SDS011;969;49.892;10.896;2023-06-10T01:29:11;5.23;;;4.73;;
1935;SDS011;969;49.892;10.896;2023-06-10T01:31:48;5.10;;;4.70;;
1935;SDS011;969;49.892;10.896;2023-06-10T01:34:20;4.30;;;3.90;;
1935;SDS011;969;49.892;10.896;2023-06-10T01:36:48;4.70;;;4.30;;
1935;SDS011;969;49.892;10.896;2023-06-10T01:39:15;4.40;;;4.10;;
1935;SDS011;969;49.892;10.896;2023-06-10T01:41:43;4.83;;;4.43;;
1935;SDS011;969;49.892;10.896;2023-06-10T01:44:09;4.93;;;4.63;;
1935;SDS011;969;49.892;10.896;2023-06-10T01:46:35;4.80;;;4.40;;
1935;SDS011;969;49.892;10.896;2023-06-10T01:49:01;4.27;;;3.90;;
1935;SDS011;969;49.892;10.896;2023-06-10T01:51:27;5.03;;;4.60;;
1935;SDS011;969;49.892;10.896;2023-06-10T01:53:52;4.47;;;4.07;;
1935;SDS011;969;49.892;10.896;2023-06-10T01:56:18;5.10;;;4.60;;
1935;SDS011;969;49.892;10.896;2023-06-10T01:58:45;5.00;;;4.50;;
1935;SDS011;969;49.892;10.896;2023-06-10T02:01:11;4.50;;;4.17;;
1935;SDS011;969;49.892;10.896;2023-06-10T02:03:37;4.30;;;4.00;;
1935;SDS011;969;49.892;10.896;2023-06-10T02:06:02;4.60;;;4.30;;
1935;SDS011;969;49.892;10.896;2023-06-10T02:08:28;4.30;;;4.00;;
1935;SDS011;969;49.892;10.896;2023-06-10T02:10:54;4.10;;;3.80;;
1935;SDS011;969;49.892;10.896;2023-06-10T02:13:19;4.63;;;4.23;;
1935;SDS011;969;49.892;10.896;2023-06-10T02:15:45;4.03;;;3.73;;
1935;SDS011;969;49.892;10.896;2023-06-10T02:18:11;3.70;;;3.40;;
1935;SDS011;969;49.892;10.896;2023-06-10T02:20:37;4.40;;;4.00;;
1935;SDS011;969;49.892;10.896;2023-06-10T02:23:02;4.13;;;3.73;;
1935;SDS011;969;49.892;10.896;2023-06-10T02:25:28;3.80;;;3.50;;
1935;SDS011;969;49.892;10.896;2023-06-10T02:27:54;3.83;;;3.53;;
1935;SDS011;969;49.892;10.896;2023-06-10T02:30:20;4.33;;;4.00;;
1935;SDS011;969;49.892;10.896;2023-06-10T02:32:46;4.63;;;4.30;;
1935;SDS011;969;49.892;10.896;2023-06-10T02:35:13;4.50;;;4.10;;
1935;SDS011;969;49.892;10.896;2023-06-10T02:37:39;4.40;;;4.10;;
1935;SDS011;969;49.892;10.896;2023-06-10T02:40:05;4.20;;;3.90;;
1935;SDS011;969;49.892;10.896;2023-06-10T02:42:32;3.80;;;3.50;;
1935;SDS011;969;49.892;10.896;2023-06-10T02:44:58;3.93;;;3.60;;
1935;SDS011;969;49.892;10.896;2023-06-10T02:47:23;4.50;;;4.10;;
1935;SDS011;969;49.892;10.896;2023-06-10T02:49:49;9.07;;;3.77;;
1935;SDS011;969;49.892;10.896;2023-06-10T02:52:14;3.90;;;3.57;;
1935;SDS011;969;49.892;10.896;2023-06-10T02:54:40;4.03;;;3.73;;
1935;SDS011;969;49.892;10.896;2023-06-10T02:57:06;3.70;;;3.40;;
1935;SDS011;969;49.892;10.896;2023-06-10T02:59:32;4.20;;;3.90;;
1935;SDS011;969;49.892;10.896;2023-06-10T03:01:58;3.67;;;3.37;;
1935;SDS011;969;49.892;10.896;2023-06-10T03:04:26;4.00;;;3.70;;
1935;SDS011;969;49.892;10.896;2023-06-10T03:06:53;3.77;;;3.40;;
1935;SDS011;969;49.892;10.896;2023-06-10T03:09:19;3.87;;;3.57;;
1935;SDS011;969;49.892;10.896;2023-06-10T03:11:45;3.60;;;3.30;;
1935;SDS011;969;49.892;10.896;2023-06-10T03:14:11;4.00;;;3.70;;
1935;SDS011;969;49.892;10.896;2023-06-10T03:16:37;4.13;;;3.83;;
1935;SDS011;969;49.892;10.896;2023-06-10T03:19:05;4.20;;;3.57;;
1935;SDS011;969;49.892;10.896;2023-06-10T03:21:31;3.73;;;3.43;;
1935;SDS011;969;49.892;10.896;2023-06-10T03:23:56;4.10;;;3.70;;
1935;SDS011;969;49.892;10.896;2023-06-10T03:26:22;3.87;;;3.57;;
1935;SDS011;969;49.892;10.896;2023-06-10T03:28:48;3.57;;;3.27;;
1935;SDS011;969;49.892;10.896;2023-06-10T03:31:13;4.47;;;4.07;;
1935;SDS011;969;49.892;10.896;2023-06-10T03:33:41;3.60;;;3.40;;
1935;SDS011;969;49.892;10.896;2023-06-10T03:36:07;3.80;;;3.50;;
1935;SDS011;969;49.892;10.896;2023-06-10T03:38:33;3.50;;;3.20;;
1935;SDS011;969;49.892;10.896;2023-06-10T03:40:58;4.30;;;3.93;;
1935;SDS011;969;49.892;10.896;2023-06-10T03:43:24;4.20;;;3.80;;
1935;SDS011;969;49.892;10.896;2023-06-10T03:45:50;4.00;;;3.70;;
1935;SDS011;969;49.892;10.896;2023-06-10T03:48:16;4.03;;;3.73;;
1935;SDS011;969;49.892;10.896;2023-06-10T03:50:42;3.80;;;3.50;;
1935;SDS011;969;49.892;10.896;2023-06-10T03:53:07;4.07;;;3.77;;
1935;SDS011;969;49.892;10.896;2023-06-10T03:55:33;4.20;;;3.70;;
1935;SDS011;969;49.892;10.896;2023-06-10T03:57:58;5.03;;;3.87;;
1935;SDS011;969;49.892;10.896;2023-06-10T04:00:24;3.90;;;3.60;;
1935;SDS011;969;49.892;10.896;2023-06-10T04:02:50;3.80;;;3.50;;
1935;SDS011;969;49.892;10.896;2023-06-10T04:05:17;3.97;;;3.63;;
1935;SDS011;969;49.892;10.896;2023-06-10T04:07:45;3.57;;;3.27;;
1935;SDS011;969;49.892;10.896;2023-06-10T04:10:13;3.60;;;3.30;;
1935;SDS011;969;49.892;10.896;2023-06-10T04:12:39;3.67;;;3.37;;
1935;SDS011;969;49.892;10.896;2023-06-10T04:15:06;3.93;;;3.50;;
1935;SDS011;969;49.892;10.896;2023-06-10T04:17:32;3.73;;;3.43;;
1935;SDS011;969;49.892;10.896;2023-06-10T04:19:58;3.97;;;3.67;;
1935;SDS011;969;49.892;10.896;2023-06-10T04:22:24;4.10;;;3.80;;
1935;SDS011;969;49.892;10.896;2023-06-10T04:24:49;4.10;;;3.73;;
1935;SDS011;969;49.892;10.896;2023-06-10T04:27:15;3.87;;;3.57;;
1935;SDS011;969;49.892;10.896;2023-06-10T04:29:41;3.83;;;3.53;;
1935;SDS011;969;49.892;10.896;2023-06-10T04:32:06;3.47;;;3.17;;
1935;SDS011;969;49.892;10.896;2023-06-10T04:34:33;4.17;;;3.83;;
1935;SDS011;969;49.892;10.896;2023-06-10T04:36:59;4.30;;;3.90;;
1935;SDS011;969;49.892;10.896;2023-06-10T04:39:25;3.83;;;3.53;;
1935;SDS011;969;49.892;10.896;2023-06-10T04:41:50;4.10;;;3.80;;
1935;SDS011;969;49.892;10.896;2023-06-10T04:44:16;3.77;;;3.47;;
1935;SDS011;969;49.892;10.896;2023-06-10T04:46:43;4.30;;;4.00;;
1935;SDS011;969;49.892;10.896;2023-06-10T04:49:09;4.17;;;3.77;;
1935;SDS011;969;49.892;10.896;2023-06-10T04:51:35;3.73;;;3.43;;
1935;SDS011;969;49.892;10.896;2023-06-10T04:54:00;3.70;;;3.40;;
1935;SDS011;969;49.892;10.896;2023-06-10T04:56:29;4.53;;;2.97;;
1935;SDS011;969;49.892;10.896;2023-06-10T04:58:56;3.33;;;3.13;;
1935;SDS011;969;49.892;10.896;2023-06-10T05:01:22;3.53;;;3.33;;
1935;SDS011;969;49.892;10.896;2023-06-10T05:03:48;3.70;;;3.40;;
1935;SDS011;969;49.892;10.896;2023-06-10T05:06:13;4.33;;;3.93;;
1935;SDS011;969;49.892;10.896;2023-06-10T05:08:39;4.80;;;4.40;;
1935;SDS011;969;49.892;10.896;2023-06-10T05:11:05;9.50;;;4.87;;
1935;SDS011;969;49.892;10.896;2023-06-10T05:13:31;6.20;;;4.43;;
1935;SDS011;969;49.892;10.896;2023-06-10T05:15:57;4.37;;;3.97;;
1935;SDS011;969;49.892;10.896;2023-06-10T05:18:22;4.87;;;4.40;;
1935;SDS011;969;49.892;10.896;2023-06-10T05:20:48;8.53;;;4.60;;
1935;SDS011;969;49.892;10.896;2023-06-10T05:23:14;6.50;;;4.57;;
1935;SDS011;969;49.892;10.896;2023-06-10T05:25:40;7.10;;;4.63;;
1935;SDS011;969;49.892;10.896;2023-06-10T05:28:06;5.73;;;4.57;;
1935;SDS011;969;49.892;10.896;2023-06-10T05:30:34;5.20;;;4.43;;
1935;SDS011;969;49.892;10.896;2023-06-10T05:33:00;5.27;;;4.87;;
1935;SDS011;969;49.892;10.896;2023-06-10T05:35:26;5.17;;;4.63;;
1935;SDS011;969;49.892;10.896;2023-06-10T05:37:51;7.17;;;4.93;;
1935;SDS011;969;49.892;10.896;2023-06-10T05:40:17;6.20;;;5.40;;
1935;SDS011;969;49.892;10.896;2023-06-10T05:42:43;5.80;;;5.30;;
1935;SDS011;969;49.892;10.896;2023-06-10T05:45:08;7.03;;;5.03;;
1935;SDS011;969;49.892;10.896;2023-06-10T05:47:34;6.37;;;5.67;;
1935;SDS011;969;49.892;10.896;2023-06-10T05:50:00;7.80;;;5.60;;
1935;SDS011;969;49.892;10.896;2023-06-10T05:52:26;5.20;;;4.70;;
1935;SDS011;969;49.892;10.896;2023-06-10T05:54:51;5.60;;;4.73;;
1935;SDS011;969;49.892;10.896;2023-06-10T05:57:17;6.27;;;5.67;;
1935;SDS011;969;49.892;10.896;2023-06-10T05:59:42;6.20;;;5.60;;
1935;SDS011;969;49.892;10.896;2023-06-10T06:02:08;6.47;;;5.40;;
1935;SDS011;969;49.892;10.896;2023-06-10T06:04:34;4.97;;;4.53;;
1935;SDS011;969;49.892;10.896;2023-06-10T06:06:59;7.50;;;6.07;;
1935;SDS011;969;49.892;10.896;2023-06-10T06:09:25;7.67;;;5.37;;
1935;SDS011;969;49.892;10.896;2023-06-10T06:11:51;6.73;;;5.80;;
1935;SDS011;969;49.892;10.896;2023-06-10T06:14:16;6.40;;;5.80;;
1935;SDS011;969;49.892;10.896;2023-06-10T06:16:42;5.80;;;5.30;;
1935;SDS011;969;49.892;10.896;2023-06-10T06:19:08;5.77;;;5.07;;
1935;SDS011;969;49.892;10.896;2023-06-10T06:21:34;6.53;;;6.03;;
1935;SDS011;969;49.892;10.896;2023-06-10T06:24:00;5.83;;;5.20;;
1935;SDS011;969;49.892;10.896;2023-06-10T06:26:25;7.30;;;5.57;;
1935;SDS011;969;49.892;10.896;2023-06-10T06:28:51;5.60;;;5.10;;
1935;SDS011;969;49.892;10.896;2023-06-10T06:31:17;5.70;;;5.17;;
1935;SDS011;969;49.892;10.896;2023-06-10T06:33:43;5.43;;;4.90;;
1935;SDS011;969;49.892;10.896;2023-06-10T06:36:08;5.93;;;5.17;;
1935;SDS011;969;49.892;10.896;2023-06-10T06:38:34;6.63;;;6.00;;
1935;SDS011;969;49.892;10.896;2023-06-10T06:40:59;6.10;;;5.60;;
1935;SDS011;969;49.892;10.896;2023-06-10T06:43:28;5.83;;;5.20;;
1935;SDS011;969;49.892;10.896;2023-06-10T06:45:55;6.43;;;5.60;;
1935;SDS011;969;49.892;10.896;2023-06-10T06:48:21;6.00;;;5.13;;
1935;SDS011;969;49.892;10.896;2023-06-10T06:50:47;6.80;;;6.30;;
1935;SDS011;969;49.892;10.896;2023-06-10T06:53:12;6.70;;;5.50;;
1935;SDS011;969;49.892;10.896;2023-06-10T06:55:38;6.00;;;5.40;;
1935;SDS011;969;49.892;10.896;2023-06-10T06:58:03;6.00;;;5.50;;
1935;SDS011;969;49.892;10.896;2023-06-10T07:00:29;6.00;;;5.50;;
1935;SDS011;969;49.892;10.896;2023-06-10T07:02:55;6.40;;;5.80;;
1935;SDS011;969;49.892;10.896;2023-06-10T07:05:22;7.00;;;5.30;;
1935;SDS011;969;49.892;10.896;2023-06-10T07:07:48;6.53;;;5.93;;
1935;SDS011;969;49.892;10.896;2023-06-10T07:10:19;6.50;;;5.80;;
1935;SDS011;969;49.892;10.896;2023-06-10T07:12:47;6.43;;;5.33;;
1935;SDS011;969;49.892;10.896;2023-06-10T07:15:12;6.40;;;5.73;;
1935;SDS011;969;49.892;10.896;2023-06-10T07:17:38;6.20;;;5.70;;
1935;SDS011;969;49.892;10.896;2023-06-10T07:20:04;6.07;;;5.57;;
1935;SDS011;969;49.892;10.896;2023-06-10T07:22:30;6.47;;;5.73;;
1935;SDS011;969;49.892;10.896;2023-06-10T07:24:56;6.13;;;5.53;;
1935;SDS011;969;49.892;10.896;2023-06-10T07:27:22;6.10;;;5.60;;
1935;SDS011;969;49.892;10.896;2023-06-10T07:29:48;5.93;;;5.20;;
1935;SDS011;969;49.892;10.896;2023-06-10T07:32:13;6.23;;;5.57;;
1935;SDS011;969;49.892;10.896;2023-06-10T07:34:39;6.50;;;6.00;;
1935;SDS011;969;49.892;10.896;2023-06-10T07:37:04;5.83;;;5.33;;
1935;SDS011;969;49.892;10.896;2023-06-10T07:39:30;5.37;;;4.97;;
1935;SDS011;969;49.892;10.896;2023-06-10T07:41:56;6.27;;;5.47;;
1935;SDS011;969;49.892;10.896;2023-06-10T07:44:22;5.90;;;5.30;;
1935;SDS011;969;49.892;10.896;2023-06-10T07:46:48;6.43;;;5.83;;
1935;SDS011;969;49.892;10.896;2023-06-10T07:49:14;5.90;;;5.40;;
1935;SDS011;969;49.892;10.896;2023-06-10T07:51:39;5.83;;;5.33;;
1935;SDS011;969;49.892;10.896;2023-06-10T07:54:05;5.20;;;4.80;;
1935;SDS011;969;49.892;10.896;2023-06-10T07:56:31;7.00;;;5.77;;
1935;SDS011;969;49.892;10.896;2023-06-10T07:58:56;6.40;;;5.80;;
1935;SDS011;969;49.892;10.896;2023-06-10T08:01:22;6.87;;;5.00;;
1935;SDS011;969;49.892;10.896;2023-06-10T08:03:49;5.13;;;4.73;;
1935;SDS011;969;49.892;10.896;2023-06-10T08:06:15;5.53;;;5.10;;
1935;SDS011;969;49.892;10.896;2023-06-10T08:08:42;5.97;;;5.50;;
1935;SDS011;969;49.892;10.896;2023-06-10T08:11:08;5.97;;;5.47;;
1935;SDS011;969;49.892;10.896;2023-06-10T08:13:37;5.77;;;5.30;;
1935;SDS011;969;49.892;10.896;2023-06-10T08:16:03;5.63;;;5.13;;
1935;SDS011;969;49.892;10.896;2023-06-10T08:18:29;6.40;;;5.83;;
1935;SDS011;969;49.892;10.896;2023-06-10T08:20:55;5.90;;;5.50;;
1935;SDS011;969;49.892;10.896;2023-06-10T08:23:20;6.10;;;5.57;;
1935;SDS011;969;49.892;10.896;2023-06-10T08:25:46;6.50;;;5.70;;
1935;SDS011;969;49.892;10.896;2023-06-10T08:28:12;5.47;;;5.00;;
1935;SDS011;969;49.892;10.896;2023-06-10T08:30:37;6.40;;;5.90;;
1935;SDS011;969;49.892;10.896;2023-06-10T08:33:03;5.70;;;5.20;;
1935;SDS011;969;49.892;10.896;2023-06-10T08:35:29;5.60;;;5.10;;
1935;SDS011;969;49.892;10.896;2023-06-10T08:37:54;6.33;;;5.83;;
1935;SDS011;969;49.892;10.896;2023-06-10T08:40:20;6.10;;;5.50;;
1935;SDS011;969;49.892;10.896;2023-06-10T08:42:52;5.60;;;5.10;;
1935;SDS011;969;49.892;10.896;2023-06-10T08:45:25;4.67;;;4.27;;
1935;SDS011;969;49.892;10.896;2023-06-10T08:47:56;5.73;;;5.23;;
1935;SDS011;969;49.892;10.896;2023-06-10T08:50:22;5.27;;;4.87;;
1935;SDS011;969;49.892;10.896;2023-06-10T08:52:48;5.33;;;4.83;;
1935;SDS011;969;49.892;10.896;2023-06-10T08:55:19;5.80;;;5.30;;
1935;SDS011;969;49.892;10.896;2023-06-10T08:57:52;5.40;;;5.00;;
1935;SDS011;969;49.892;10.896;2023-06-10T09:00:19;5.30;;;4.90;;
1935;SDS011;969;49.892;10.896;2023-06-10T09:02:45;5.37;;;4.97;;
1935;SDS011;969;49.892;10.896;2023-06-10T09:05:11;6.33;;;5.10;;
1935;SDS011;969;49.892;10.896;2023-06-10T09:07:38;5.50;;;5.00;;
1935;SDS011;969;49.892;10.896;2023-06-10T09:10:04;5.40;;;5.00;;
1935;SDS011;969;49.892;10.896;2023-06-10T09:12:32;5.37;;;4.90;;
1935;SDS011;969;49.892;10.896;2023-06-10T09:14:59;5.23;;;4.83;;
1935;SDS011;969;49.892;10.896;2023-06-10T09:17:25;5.47;;;5.07;;
1935;SDS011;969;49.892;10.896;2023-06-10T09:19:52;5.73;;;5.03;;
1935;SDS011;969;49.892;10.896;2023-06-10T09:22:20;5.37;;;4.83;;
1935;SDS011;969;49.892;10.896;2023-06-10T09:24:48;5.87;;;5.33;;
1935;SDS011;969;49.892;10.896;2023-06-10T09:27:14;5.60;;;5.10;;
1935;SDS011;969;49.892;10.896;2023-06-10T09:29:46;5.43;;;5.03;;
1935;SDS011;969;49.892;10.896;2023-06-10T09:32:17;5.37;;;4.97;;
1935;SDS011;969;49.892;10.896;2023-06-10T09:34:43;5.30;;;4.80;;
1935;SDS011;969;49.892;10.896;2023-06-10T09:37:09;6.03;;;5.30;;
1935;SDS011;969;49.892;10.896;2023-06-10T09:39:37;4.90;;;4.50;;
1935;SDS011;969;49.892;10.896;2023-06-10T09:42:10;5.20;;;4.80;;
1935;SDS011;969;49.892;10.896;2023-06-10T09:44:50;5.43;;;5.03;;
1935;SDS011;969;49.892;10.896;2023-06-10T09:47:20;5.67;;;5.13;;
1935;SDS011;969;49.892;10.896;2023-06-10T09:49:46;5.83;;;5.33;;
1935;SDS011;969;49.892;10.896;2023-06-10T09:52:12;5.30;;;4.90;;
1935;SDS011;969;49.892;10.896;2023-06-10T09:54:37;5.17;;;4.77;;
1935;SDS011;969;49.892;10.896;2023-06-10T09:57:06;5.77;;;5.30;;
1935;SDS011;969;49.892;10.896;2023-06-10T09:59:33;6.20;;;5.33;;
1935;SDS011;969;49.892;10.896;2023-06-10T10:01:59;5.30;;;4.80;;
1935;SDS011;969;49.892;10.896;2023-06-10T10:04:25;5.20;;;4.70;;
1935;SDS011;969;49.892;10.896;2023-06-10T10:06:52;5.27;;;4.87;;
1935;SDS011;969;49.892;10.896;2023-06-10T10:09:18;6.57;;;6.00;;
1935;SDS011;969;49.892;10.896;2023-06-10T10:11:43;4.93;;;4.53;;
1935;SDS011;969;49.892;10.896;2023-06-10T10:14:09;6.30;;;5.80;;
1935;SDS011;969;49.892;10.896;2023-06-10T10:16:40;5.27;;;4.87;;
1935;SDS011;969;49.892;10.896;2023-06-10T10:19:18;5.13;;;4.63;;
1935;SDS011;969;49.892;10.896;2023-06-10T10:21:52;5.13;;;4.70;;
1935;SDS011;969;49.892;10.896;2023-06-10T10:24:23;5.57;;;4.90;;
1935;SDS011;969;49.892;10.896;2023-06-10T10:26:53;5.43;;;4.93;;
1935;SDS011;969;49.892;10.896;2023-06-10T10:32:01;5.40;;;5.00;;
1935;SDS011;969;49.892;10.896;2023-06-10T10:34:35;4.73;;;4.33;;
1935;SDS011;969;49.892;10.896;2023-06-10T10:37:05;4.93;;;4.53;;
1935;SDS011;969;49.892;10.896;2023-06-10T10:39:30;4.73;;;4.33;;
1935;SDS011;969;49.892;10.896;2023-06-10T10:41:59;4.90;;;4.60;;
1935;SDS011;969;49.892;10.896;2023-06-10T10:44:25;4.70;;;4.30;;
1935;SDS011;969;49.892;10.896;2023-06-10T10:46:52;5.70;;;5.20;;
1935;SDS011;969;49.892;10.896;2023-06-10T10:49:19;4.70;;;4.40;;
1935;SDS011;969;49.892;10.896;2023-06-10T10:52:00;5.17;;;4.67;;
1935;SDS011;969;49.892;10.896;2023-06-10T10:54:33;4.50;;;4.10;;
1935;SDS011;969;49.892;10.896;2023-06-10T10:57:34;5.03;;;4.63;;
1935;SDS011;969;49.892;10.896;2023-06-10T10:59:57;5.27;;;4.87;;
1935;SDS011;969;49.892;10.896;2023-06-10T11:02:32;4.70;;;4.30;;
1935;SDS011;969;49.892;10.896;2023-06-10T11:05:09;5.83;;;5.33;;
1935;SDS011;969;49.892;10.896;2023-06-10T11:07:55;5.00;;;4.60;;
1935;SDS011;969;49.892;10.896;2023-06-10T11:10:31;4.60;;;4.30;;
1935;SDS011;969;49.892;10.896;2023-06-10T11:13:06;5.03;;;4.63;;
1935;SDS011;969;49.892;10.896;2023-06-10T11:15:39;4.63;;;4.23;;
1935;SDS011;969;49.892;10.896;2023-06-10T11:28:39;4.83;;;4.47;;
1935;SDS011;969;49.892;10.896;2023-06-10T11:31:05;4.30;;;4.00;;
1935;SDS011;969;49.892;10.896;2023-06-10T11:33:31;4.70;;;4.30;;
1935;SDS011;969;49.892;10.896;2023-06-10T11:35:57;4.93;;;4.63;;
1935;SDS011;969;49.892;10.896;2023-06-10T11:38:23;5.27;;;4.80;;
1935;SDS011;969;49.892;10.896;2023-06-10T11:40:50;4.63;;;4.23;;
1935;SDS011;969;49.892;10.896;2023-06-10T11:43:19;5.37;;;4.97;;
1935;SDS011;969;49.892;10.896;2023-06-10T11:45:45;5.10;;;4.60;;
1935;SDS011;969;49.892;10.896;2023-06-10T11:48:12;4.40;;;4.10;;
1935;SDS011;969;49.892;10.896;2023-06-10T11:50:38;4.90;;;4.60;;
1935;SDS011;969;49.892;10.896;2023-06-10T11:53:07;4.70;;;4.30;;
1935;SDS011;969;49.892;10.896;2023-06-10T11:55:43;4.67;;;4.27;;
1935;SDS011;969;49.892;10.896;2023-06-10T11:58:17;4.80;;;4.40;;
1935;SDS011;969;49.892;10.896;2023-06-10T12:00:47;4.47;;;4.13;;
1935;SDS011;969;49.892;10.896;2023-06-10T12:03:23;5.23;;;4.73;;
1935;SDS011;969;49.892;10.896;2023-06-10T12:05:59;4.00;;;3.70;;
1935;SDS011;969;49.892;10.896;2023-06-10T12:08:29;4.23;;;3.83;;
1935;SDS011;969;49.892;10.896;2023-06-10T12:10:55;4.80;;;4.27;;
1935;SDS011;969;49.892;10.896;2023-06-10T12:13:22;4.23;;;3.93;;
1935;SDS011;969;49.892;10.896;2023-06-10T12:15:51;4.37;;;3.97;;
1935;SDS011;969;49.892;10.896;2023-06-10T12:18:17;4.40;;;4.10;;
1935;SDS011;969;49.892;10.896;2023-06-10T12:20:47;4.67;;;4.27;;
1935;SDS011;969;49.892;10.896;2023-06-10T12:23:13;4.43;;;4.03;;
1935;SDS011;969;49.892;10.896;2023-06-10T12:25:42;4.33;;;4.03;;
1935;SDS011;969;49.892;10.896;2023-06-10T12:28:21;5.10;;;4.70;;
1935;SDS011;969;49.892;10.896;2023-06-10T12:30:47;4.37;;;3.97;;
1935;SDS011;969;49.892;10.896;2023-06-10T12:33:19;5.10;;;4.70;;
1935;SDS011;969;49.892;10.896;2023-06-10T12:35:47;4.33;;;4.00;;
1935;SDS011;969;49.892;10.896;2023-06-10T12:38:25;4.40;;;4.10;;
1935;SDS011;969;49.892;10.896;2023-06-10T12:40:54;4.47;;;4.17;;
1935;SDS011;969;49.892;10.896;2023-06-10T12:43:26;5.00;;;4.60;;
1935;SDS011;969;49.892;10.896;2023-06-10T12:45:52;3.90;;;3.60;;
1935;SDS011;969;49.892;10.896;2023-06-10T12:48:20;4.20;;;3.83;;
1935;SDS011;969;49.892;10.896;2023-06-10T12:50:57;4.87;;;4.53;;
1935;SDS011;969;49.892;10.896;2023-06-10T12:53:23;4.43;;;4.13;;
1935;SDS011;969;49.892;10.896;2023-06-10T12:55:51;4.97;;;4.60;;
1935;SDS011;969;49.892;10.896;2023-06-10T12:58:18;4.43;;;4.13;;
1935;SDS011;969;49.892;10.896;2023-06-10T13:00:45;4.40;;;4.00;;
1935;SDS011;969;49.892;10.896;2023-06-10T13:03:10;4.67;;;4.37;;
1935;SDS011;969;49.892;10.896;2023-06-10T13:05:36;4.77;;;4.37;;
1935;SDS011;969;49.892;10.896;2023-06-10T13:08:04;3.97;;;3.63;;
1935;SDS011;969;49.892;10.896;2023-06-10T13:10:32;4.27;;;3.97;;
1935;SDS011;969;49.892;10.896;2023-06-10T13:12:58;4.53;;;4.13;;
1935;SDS011;969;49.892;10.896;2023-06-10T13:15:24;4.57;;;4.17;;
1935;SDS011;969;49.892;10.896;2023-06-10T13:17:51;4.43;;;4.03;;
1935;SDS011;969;49.892;10.896;2023-06-10T13:20:17;4.37;;;4.07;;
1935;SDS011;969;49.892;10.896;2023-06-10T13:22:44;4.10;;;3.80;;
1935;SDS011;969;49.892;10.896;2023-06-10T13:25:10;4.63;;;4.30;;
1935;SDS011;969;49.892;10.896;2023-06-10T13:27:35;4.33;;;3.93;;
1935;SDS011;969;49.892;10.896;2023-06-10T13:30:05;4.13;;;3.83;;
1935;SDS011;969;49.892;10.896;2023-06-10T13:32:32;3.50;;;3.30;;
1935;SDS011;969;49.892;10.896;2023-06-10T13:34:57;4.87;;;4.47;;
1935;SDS011;969;49.892;10.896;2023-06-10T13:37:23;4.60;;;4.20;;
1935;SDS011;969;49.892;10.896;2023-06-10T13:39:48;3.77;;;3.47;;
1935;SDS011;969;49.892;10.896;2023-06-10T13:42:19;4.30;;;3.90;;
1935;SDS011;969;49.892;10.896;2023-06-10T13:44:45;4.57;;;4.27;;
1935;SDS011;969;49.892;10.896;2023-06-10T13:47:14;4.70;;;4.30;;
1935;SDS011;969;49.892;10.896;2023-06-10T13:49:40;4.10;;;3.80;;
1935;SDS011;969;49.892;10.896;2023-06-10T13:52:06;5.03;;;4.63;;
1935;SDS011;969;49.892;10.896;2023-06-10T13:54:32;4.27;;;3.97;;
1935;SDS011;969;49.892;10.896;2023-06-10T13:56:58;4.67;;;4.27;;
1935;SDS011;969;49.892;10.896;2023-06-10T13:59:25;3.93;;;3.63;;
1935;SDS011;969;49.892;10.896;2023-06-10T14:01:50;4.20;;;3.90;;
1935;SDS011;969;49.892;10.896;2023-06-10T14:04:16;5.00;;;4.50;;
1935;SDS011;969;49.892;10.896;2023-06-10T14:06:42;4.07;;;3.77;;
1935;SDS011;969;49.892;10.896;2023-06-10T14:09:07;4.20;;;3.90;;
1935;SDS011;969;49.892;10.896;2023-06-10T14:11:33;4.27;;;3.97;;
1935;SDS011;969;49.892;10.896;2023-06-10T14:13:58;4.37;;;4.07;;
1935;SDS011;969;49.892;10.896;2023-06-10T14:16:25;4.00;;;3.70;;
1935;SDS011;969;49.892;10.896;2023-06-10T14:18:51;4.40;;;4.10;;
1935;SDS011;969;49.892;10.896;2023-06-10T14:21:17;5.10;;;4.70;;
1935;SDS011;969;49.892;10.896;2023-06-10T14:23:43;4.53;;;4.23;;
1935;SDS011;969;49.892;10.896;2023-06-10T14:26:09;4.20;;;3.90;;
1935;SDS011;969;49.892;10.896;2023-06-10T14:28:35;4.27;;;3.97;;
1935;SDS011;969;49.892;10.896;2023-06-10T14:31:00;4.73;;;4.33;;
1935;SDS011;969;49.892;10.896;2023-06-10T14:33:26;5.30;;;4.90;;
1935;SDS011;969;49.892;10.896;2023-06-10T14:35:52;4.50;;;4.10;;
1935;SDS011;969;49.892;10.896;2023-06-10T14:38:17;5.07;;;4.63;;
1935;SDS011;969;49.892;10.896;2023-06-10T14:40:43;5.07;;;4.67;;
1935;SDS011;969;49.892;10.896;2023-06-10T14:43:09;6.30;;;4.43;;
1935;SDS011;969;49.892;10.896;2023-06-10T14:45:39;5.10;;;4.70;;
1935;SDS011;969;49.892;10.896;2023-06-10T14:48:05;5.63;;;5.20;;
1935;SDS011;969;49.892;10.896;2023-06-10T14:50:32;5.30;;;4.90;;
1935;SDS011;969;49.892;10.896;2023-06-10T14:52:59;5.73;;;5.23;;
1935;SDS011;969;49.892;10.896;2023-06-10T14:55:25;5.37;;;4.90;;
1935;SDS011;969;49.892;10.896;2023-06-10T14:57:51;6.17;;;5.60;;
1935;SDS011;969;49.892;10.896;2023-06-10T15:00:16;6.37;;;5.87;;
1935;SDS011;969;49.892;10.896;2023-06-10T15:02:45;5.77;;;5.30;;
1935;SDS011;969;49.892;10.896;2023-06-10T15:05:14;5.40;;;4.90;;
1935;SDS011;969;49.892;10.896;2023-06-10T15:07:40;5.97;;;5.47;;
1935;SDS011;969;49.892;10.896;2023-06-10T15:10:07;6.23;;;5.73;;
1935;SDS011;969;49.892;10.896;2023-06-10T15:12:33;6.17;;;5.67;;
1935;SDS011;969;49.892;10.896;2023-06-10T15:14:59;6.70;;;6.10;;
1935;SDS011;969;49.892;10.896;2023-06-10T15:17:24;6.67;;;6.17;;
1935;SDS011;969;49.892;10.896;2023-06-10T15:19:50;6.33;;;5.83;;
1935;SDS011;969;49.892;10.896;2023-06-10T15:22:16;6.10;;;5.53;;
1935;SDS011;969;49.892;10.896;2023-06-10T15:24:42;7.03;;;6.33;;
1935;SDS011;969;49.892;10.896;2023-06-10T15:27:07;7.40;;;6.40;;
1935;SDS011;969;49.892;10.896;2023-06-10T15:29:33;7.13;;;6.53;;